createdAt,value
2022-11-05T00:04:08.320Z,98502.66
2022-11-05T00:14:31.785Z,98497.86
2022-11-05T00:24:55.326Z,98503.61
2022-11-05T00:35:00.939Z,98513.08
2022-11-05T00:45:08.284Z,98512.15
2022-11-05T00:55:13.938Z,98515.94
2022-11-05T01:05:19.933Z,98517.16
2022-11-05T01:15:25.680Z,98524.54
2022-11-05T01:25:31.536Z,98533.02
2022-11-05T01:35:37.149Z,98545.89
2022-11-05T01:45:44.028Z,98544.79
2022-11-05T01:55:54.705Z,98538.21
2022-11-05T02:06:02.005Z,98535.48
2022-11-05T02:16:15.292Z,98540.70
2022-11-05T02:26:59.748Z,98551.44
2022-11-05T02:37:15.616Z,98562.66
2022-11-05T02:47:30.873Z,98562.73
2022-11-05T02:57:38.604Z,98555.34
2022-11-05T03:07:54.428Z,98570.88
2022-11-05T03:18:10.866Z,98595.48
2022-11-05T03:28:18.315Z,98623.39
2022-11-05T03:38:29.120Z,98631.37
2022-11-05T03:48:39.753Z,98633.78
2022-11-05T03:58:46.843Z,98659.16
2022-11-05T04:09:10.424Z,98653.50
2022-11-05T04:19:36.538Z,98685.39
2022-11-05T04:29:59.615Z,98687.58
2022-11-05T04:40:05.481Z,98699.44
2022-11-05T04:50:12.239Z,98705.58
2022-11-05T05:00:19.037Z,98711.47
2022-11-05T05:10:24.633Z,98718.10
2022-11-05T05:20:47.485Z,98728.43
2022-11-05T05:30:58.519Z,98734.80
2022-11-05T05:41:04.570Z,98755.52
2022-11-05T05:51:12.713Z,98761.29
2022-11-05T06:01:20.246Z,98770.40
2022-11-05T06:11:27.319Z,98787.88
2022-11-05T06:21:33.286Z,98801.56
2022-11-05T06:31:38.957Z,98807.59
2022-11-05T06:42:12.006Z,98810.08
2022-11-05T06:52:11.411Z,98837.36
2022-11-05T07:02:18.308Z,98859.79
2022-11-05T07:12:23.903Z,98868.84
2022-11-05T07:22:29.496Z,98896.55
2022-11-05T07:32:39.672Z,98924.41
2022-11-05T07:42:46.593Z,98942.25
2022-11-05T07:52:52.924Z,98958.95
2022-11-05T08:03:07.637Z,98953.58
2022-11-05T08:13:14.834Z,98951.30
2022-11-05T08:23:20.672Z,98969.64
2022-11-05T08:33:27.556Z,98982.61
2022-11-05T08:43:33.128Z,98989.32
2022-11-05T08:53:38.762Z,99012.08
2022-11-05T09:03:44.376Z,99033.81
2022-11-05T09:13:50.026Z,99048.69
2022-11-05T09:23:55.632Z,99069.69
2022-11-05T09:34:01.374Z,99082.45
2022-11-05T09:44:12.900Z,99092.43
2022-11-05T09:54:18.637Z,99089.19
2022-11-05T10:04:28.729Z,99090.38
2022-11-05T10:14:38.917Z,99101.61
2022-11-05T10:24:48.250Z,99111.17
2022-11-05T10:34:55.411Z,99126.77
2022-11-05T10:45:10.264Z,99131.26
2022-11-05T10:55:22.016Z,99143.16
2022-11-05T11:05:31.204Z,99153.54
2022-11-05T11:15:37.299Z,99160.98
2022-11-05T11:25:49.046Z,99160.40
2022-11-05T11:35:55.004Z,99167.58
2022-11-05T11:46:06.045Z,99169.38
2022-11-05T11:56:19.430Z,99173.92
2022-11-05T12:06:34.227Z,99184.78
2022-11-05T12:16:56.349Z,99194.92
2022-11-05T12:27:14.757Z,99202.83
2022-11-05T12:37:31.418Z,99208.42
2022-11-05T12:48:00.172Z,99214.98
2022-11-05T12:58:13.513Z,99226.58
2022-11-05T13:08:23.657Z,99235.45
2022-11-05T13:18:36.115Z,99254.02
2022-11-05T13:28:49.185Z,99269.19
2022-11-05T13:39:07.003Z,99297.80
2022-11-05T13:49:22.274Z,99317.91
2022-11-05T13:59:47.389Z,99321.11
2022-11-05T14:09:59.392Z,99330.89
2022-11-05T14:20:39.307Z,99342.70
2022-11-05T14:30:47.657Z,99365.55
2022-11-05T14:41:02.671Z,99369.81
2022-11-05T14:51:27.309Z,99375.92
2022-11-05T15:01:55.529Z,99386.66
2022-11-05T15:12:09.664Z,99402.33
2022-11-05T15:22:30.285Z,99420.96
2022-11-05T15:32:38.559Z,99433.66
2022-11-05T15:42:44.623Z,99435.19
2022-11-05T15:52:55.477Z,99453.06
2022-11-05T16:03:09.910Z,99461.39
2022-11-05T16:13:34.387Z,99464.73
2022-11-05T16:23:46.342Z,99480.64
2022-11-05T16:33:52.957Z,99488.51
2022-11-05T16:44:00.696Z,99503.40
2022-11-05T16:54:07.569Z,99511.59
2022-11-05T17:04:15.146Z,99524.14
2022-11-05T17:14:21.314Z,99539.91
2022-11-05T17:24:27.194Z,99554.14
2022-11-05T17:34:32.791Z,99561.71
2022-11-05T17:44:39.118Z,99574.83
2022-11-05T17:54:44.871Z,99577.91
2022-11-05T18:04:50.724Z,99581.04
2022-11-05T18:14:56.352Z,99587.17
2022-11-05T18:25:01.959Z,99589.86
2022-11-05T18:35:08.656Z,99603.50
2022-11-05T18:45:14.644Z,99607.70
2022-11-05T18:55:20.510Z,99608.23
2022-11-05T19:05:29.312Z,99609.35
2022-11-05T19:15:35.746Z,99612.75
2022-11-05T19:25:41.707Z,99620.83
2022-11-05T19:35:47.359Z,99634.90
2022-11-05T19:45:53.029Z,99649.06
2022-11-05T19:55:58.939Z,99666.87
2022-11-05T20:06:09.881Z,99675.34
2022-11-05T20:16:23.933Z,99681.85
2022-11-05T20:26:31.011Z,99698.83
2022-11-05T20:36:36.853Z,99701.61
2022-11-05T20:46:42.627Z,99706.77
2022-11-05T20:56:48.681Z,99715.69
2022-11-05T21:06:54.447Z,99717.16
2022-11-05T21:17:00.115Z,99724.45
2022-11-05T21:27:05.782Z,99730.08
2022-11-05T21:37:11.479Z,99725.54
2022-11-05T21:47:17.409Z,99734.32
2022-11-05T21:57:40.535Z,99739.92
2022-11-05T22:07:46.165Z,99745.54
2022-11-05T22:17:53.582Z,99748.41
2022-11-05T22:27:59.442Z,99758.64
2022-11-05T22:38:05.679Z,99757.25
2022-11-05T22:48:11.628Z,99764.17
2022-11-05T22:58:17.644Z,99759.41
2022-11-05T23:08:40.930Z,99763.66
2022-11-05T23:19:12.578Z,99774.08
2022-11-05T23:29:18.381Z,99778.17
2022-11-05T23:39:24.193Z,99773.04
2022-11-05T23:49:29.976Z,99771.80
2022-11-05T23:59:35.836Z,99772.79
